﻿<?xml version="1.0" encoding="utf-8"?><gpx creator="Garmin Desktop App" version="1.1" xsi:schemaLocation="http://www.topografix.com/GPX/1/1 http://www.topografix.com/GPX/1/1/gpx.xsd http://www.garmin.com/xmlschemas/WaypointExtension/v1 http://www8.garmin.com/xmlschemas/WaypointExtensionv1.xsd http://www.garmin.com/xmlschemas/TrackPointExtension/v1 http://www.garmin.com/xmlschemas/TrackPointExtensionv1.xsd http://www.garmin.com/xmlschemas/GpxExtensions/v3 http://www8.garmin.com/xmlschemas/GpxExtensionsv3.xsd http://www.garmin.com/xmlschemas/ActivityExtension/v1 http://www8.garmin.com/xmlschemas/ActivityExtensionv1.xsd http://www.garmin.com/xmlschemas/AdventuresExtensions/v1 http://www8.garmin.com/xmlschemas/AdventuresExtensionv1.xsd http://www.garmin.com/xmlschemas/PressureExtension/v1 http://www.garmin.com/xmlschemas/PressureExtensionv1.xsd http://www.garmin.com/xmlschemas/TripExtensions/v1 http://www.garmin.com/xmlschemas/TripExtensionsv1.xsd http://www.garmin.com/xmlschemas/TripMetaDataExtensions/v1 http://www.garmin.com/xmlschemas/TripMetaDataExtensionsv1.xsd http://www.garmin.com/xmlschemas/ViaPointTransportationModeExtensions/v1 http://www.garmin.com/xmlschemas/ViaPointTransportationModeExtensionsv1.xsd http://www.garmin.com/xmlschemas/CreationTimeExtension/v1 http://www.garmin.com/xmlschemas/CreationTimeExtensionsv1.xsd http://www.garmin.com/xmlschemas/AccelerationExtension/v1 http://www.garmin.com/xmlschemas/AccelerationExtensionv1.xsd http://www.garmin.com/xmlschemas/PowerExtension/v1 http://www.garmin.com/xmlschemas/PowerExtensionv1.xsd http://www.garmin.com/xmlschemas/VideoExtension/v1 http://www.garmin.com/xmlschemas/VideoExtensionv1.xsd" xmlns="http://www.topografix.com/GPX/1/1" xmlns:xsi="http://www.w3.org/2001/XMLSchema-instance" xmlns:wptx1="http://www.garmin.com/xmlschemas/WaypointExtension/v1" xmlns:gpxtrx="http://www.garmin.com/xmlschemas/GpxExtensions/v3" xmlns:gpxtpx="http://www.garmin.com/xmlschemas/TrackPointExtension/v1" xmlns:gpxx="http://www.garmin.com/xmlschemas/GpxExtensions/v3" xmlns:trp="http://www.garmin.com/xmlschemas/TripExtensions/v1" xmlns:adv="http://www.garmin.com/xmlschemas/AdventuresExtensions/v1" xmlns:prs="http://www.garmin.com/xmlschemas/PressureExtension/v1" xmlns:tmd="http://www.garmin.com/xmlschemas/TripMetaDataExtensions/v1" xmlns:vptm="http://www.garmin.com/xmlschemas/ViaPointTransportationModeExtensions/v1" xmlns:ctx="http://www.garmin.com/xmlschemas/CreationTimeExtension/v1" xmlns:gpxacc="http://www.garmin.com/xmlschemas/AccelerationExtension/v1" xmlns:gpxpx="http://www.garmin.com/xmlschemas/PowerExtension/v1" xmlns:vidx1="http://www.garmin.com/xmlschemas/VideoExtension/v1">

  <metadata>
    <link href="http://www.garmin.com">
      <text>Garmin International</text>
    </link>
    <time>2022-09-13T20:38:16Z</time>
    <bounds maxlat="50.475183958187699" maxlon="5.293147964403033" minlat="50.417445972561836" minlon="5.190873993560672" />
  </metadata>

  <trk>
    <name>Marchin Malle PosteChâteau Modave 31 km</name>
    <extensions>
      <gpxx:TrackExtension>
        <gpxx:DisplayColor>Red</gpxx:DisplayColor>
      </gpxx:TrackExtension>
    </extensions>
    <trkseg>
      <trkpt lat="50.471761962398887" lon="5.208363002166152">
        <ele>265.89699999999999</ele>
        <time>2015-08-08T11:06:49Z</time>
      </trkpt>
      <trkpt lat="50.470006037503481" lon="5.209950031712651">
        <ele>264.12299999999999</ele>
        <time>2015-08-08T11:09:10Z</time>
      </trkpt>
      <trkpt lat="50.470683965831995" lon="5.213086036965251">
        <ele>262.125</ele>
        <time>2015-08-08T11:11:47Z</time>
      </trkpt>
      <trkpt lat="50.470493026077747" lon="5.213745022192597">
        <ele>257.80799999999999</ele>
        <time>2015-08-08T11:12:18Z</time>
      </trkpt>
      <trkpt lat="50.472747003659606" lon="5.219761971384287">
        <ele>251.50999999999999</ele>
        <time>2015-08-08T11:16:51Z</time>
      </trkpt>
      <trkpt lat="50.473692985251546" lon="5.221324022859335">
        <ele>249.03899999999999</ele>
        <time>2015-08-08T11:18:19Z</time>
      </trkpt>
      <trkpt lat="50.474260021001101" lon="5.222741989418864">
        <ele>242.16300000000001</ele>
        <time>2015-08-08T11:19:24Z</time>
      </trkpt>
      <trkpt lat="50.474604014307261" lon="5.224029030650854">
        <ele>233.87</ele>
        <time>2015-08-08T11:20:21Z</time>
      </trkpt>
      <trkpt lat="50.474430005997419" lon="5.224329018965364">
        <ele>229.785</ele>
        <time>2015-08-08T11:20:45Z</time>
      </trkpt>
      <trkpt lat="50.473631964996457" lon="5.224179988726974">
        <ele>222.51300000000001</ele>
        <time>2015-08-08T11:21:33Z</time>
      </trkpt>
      <trkpt lat="50.473453011363745" lon="5.224288031458855">
        <ele>221.62</ele>
        <time>2015-08-08T11:21:45Z</time>
      </trkpt>
      <trkpt lat="50.47301203943789" lon="5.22655600681901">
        <ele>209.22900000000001</ele>
        <time>2015-08-08T11:23:17Z</time>
      </trkpt>
      <trkpt lat="50.473659038543701" lon="5.22784598171711">
        <ele>211.03399999999999</ele>
        <time>2015-08-08T11:24:28Z</time>
      </trkpt>
      <trkpt lat="50.474856980144978" lon="5.231293961405754">
        <ele>201.45500000000001</ele>
        <time>2015-08-08T11:27:04Z</time>
      </trkpt>
      <trkpt lat="50.474959993734956" lon="5.232370030134916">
        <ele>197.31</ele>
        <time>2015-08-08T11:27:48Z</time>
      </trkpt>
      <trkpt lat="50.475183958187699" lon="5.232952991500497">
        <ele>194.90799999999999</ele>
        <time>2015-08-08T11:28:09Z</time>
      </trkpt>
      <trkpt lat="50.475128972902894" lon="5.234467014670372">
        <ele>191.714</ele>
        <time>2015-08-08T11:29:02Z</time>
      </trkpt>
      <trkpt lat="50.474651958793402" lon="5.23454898968339">
        <ele>193.41300000000001</ele>
        <time>2015-08-08T11:29:32Z</time>
      </trkpt>
      <trkpt lat="50.473630037158728" lon="5.234058983623982">
        <ele>196.71700000000001</ele>
        <time>2015-08-08T11:30:40Z</time>
      </trkpt>
      <trkpt lat="50.473158974200487" lon="5.234284037724137">
        <ele>199.054</ele>
        <time>2015-08-08T11:31:20Z</time>
      </trkpt>
      <trkpt lat="50.47211098484695" lon="5.235225996002555">
        <ele>205.989</ele>
        <time>2015-08-08T11:32:38Z</time>
      </trkpt>
      <trkpt lat="50.47174796462059" lon="5.234969006851316">
        <ele>207.137</ele>
        <time>2015-08-08T11:33:00Z</time>
      </trkpt>
      <trkpt lat="50.470979008823633" lon="5.234869010746479">
        <ele>209.39400000000001</ele>
        <time>2015-08-08T11:33:50Z</time>
      </trkpt>
      <trkpt lat="50.469111017882824" lon="5.234922990202904">
        <ele>224.923</ele>
        <time>2015-08-08T11:35:47Z</time>
      </trkpt>
      <trkpt lat="50.468624029308558" lon="5.235093981027603">
        <ele>230.73599999999999</ele>
        <time>2015-08-08T11:36:22Z</time>
      </trkpt>
      <trkpt lat="50.468128994107246" lon="5.235605025663972">
        <ele>236.31700000000001</ele>
        <time>2015-08-08T11:37:08Z</time>
      </trkpt>
      <trkpt lat="50.467167003080249" lon="5.23586000315845">
        <ele>249.018</ele>
        <time>2015-08-08T11:38:17Z</time>
      </trkpt>
      <trkpt lat="50.465569999068975" lon="5.23757996968925">
        <ele>268.70800000000003</ele>
        <time>2015-08-08T11:40:35Z</time>
      </trkpt>
      <trkpt lat="50.465013021603227" lon="5.237843999639154">
        <ele>267.69400000000002</ele>
        <time>2015-08-08T11:41:15Z</time>
      </trkpt>
      <trkpt lat="50.464343978092074" lon="5.238713035359979">
        <ele>264.06299999999999</ele>
        <time>2015-08-08T11:42:16Z</time>
      </trkpt>
      <trkpt lat="50.464068967849016" lon="5.238842032849789">
        <ele>262.68700000000001</ele>
        <time>2015-08-08T11:42:40Z</time>
      </trkpt>
      <trkpt lat="50.463841985911131" lon="5.238562999293208">
        <ele>260.92399999999998</ele>
        <time>2015-08-08T11:42:57Z</time>
      </trkpt>
      <trkpt lat="50.463380981236696" lon="5.238335011526942">
        <ele>256.73899999999998</ele>
        <time>2015-08-08T11:43:28Z</time>
      </trkpt>
      <trkpt lat="50.46302299015224" lon="5.237809969112277">
        <ele>254.12700000000001</ele>
        <time>2015-08-08T11:43:55Z</time>
      </trkpt>
      <trkpt lat="50.462310025468469" lon="5.237423982471228">
        <ele>245.51400000000001</ele>
        <time>2015-08-08T11:44:52Z</time>
      </trkpt>
      <trkpt lat="50.462197037413716" lon="5.237639984115958">
        <ele>243.44300000000001</ele>
        <time>2015-08-08T11:45:15Z</time>
      </trkpt>
      <trkpt lat="50.462797014042735" lon="5.239764964208007">
        <ele>242.751</ele>
        <time>2015-08-08T11:46:48Z</time>
      </trkpt>
      <trkpt lat="50.463376035913825" lon="5.240732990205288">
        <ele>244.80099999999999</ele>
        <time>2015-08-08T11:47:43Z</time>
      </trkpt>
      <trkpt lat="50.463262964040041" lon="5.241426005959511">
        <ele>244.11099999999999</ele>
        <time>2015-08-08T11:48:13Z</time>
      </trkpt>
      <trkpt lat="50.463578039780259" lon="5.242763003334403">
        <ele>237.108</ele>
        <time>2015-08-08T11:50:23Z</time>
      </trkpt>
      <trkpt lat="50.463463962078094" lon="5.24301303550601">
        <ele>230.18600000000001</ele>
        <time>2015-08-08T11:50:36Z</time>
      </trkpt>
      <trkpt lat="50.463191969320178" lon="5.242894012480974">
        <ele>226.64500000000001</ele>
        <time>2015-08-08T11:50:56Z</time>
      </trkpt>
      <trkpt lat="50.462300973013043" lon="5.241914000362158">
        <ele>227.53899999999999</ele>
        <time>2015-08-08T11:52:06Z</time>
      </trkpt>
      <trkpt lat="50.46182001940906" lon="5.241967979818583">
        <ele>220.96600000000001</ele>
        <time>2015-08-08T11:52:38Z</time>
      </trkpt>
      <trkpt lat="50.461480971425772" lon="5.241676038131118">
        <ele>209.24100000000001</ele>
        <time>2015-08-08T11:53:03Z</time>
      </trkpt>
      <trkpt lat="50.46108802780509" lon="5.241696992889047">
        <ele>208.779</ele>
        <time>2015-08-08T11:53:27Z</time>
      </trkpt>
      <trkpt lat="50.460740011185408" lon="5.242009973153472">
        <ele>206.92599999999999</ele>
        <time>2015-08-08T11:53:55Z</time>
      </trkpt>
      <trkpt lat="50.460554016754031" lon="5.241977032274008">
        <ele>203.97499999999999</ele>
        <time>2015-08-08T11:54:11Z</time>
      </trkpt>
      <trkpt lat="50.459912968799472" lon="5.241343025118113">
        <ele>193.018</ele>
        <time>2015-08-08T11:54:59Z</time>
      </trkpt>
      <trkpt lat="50.459666037932038" lon="5.240699965506792">
        <ele>188.69800000000001</ele>
        <time>2015-08-08T11:55:26Z</time>
      </trkpt>
      <trkpt lat="50.458907978609204" lon="5.240530986338854">
        <ele>188.11699999999999</ele>
        <time>2015-08-08T11:56:19Z</time>
      </trkpt>
      <trkpt lat="50.458655012771487" lon="5.240267962217331">
        <ele>185.90799999999999</ele>
        <time>2015-08-08T11:56:35Z</time>
      </trkpt>
      <trkpt lat="50.458367010578513" lon="5.240302998572588">
        <ele>185.792</ele>
        <time>2015-08-08T11:57:01Z</time>
      </trkpt>
      <trkpt lat="50.458363993093371" lon="5.240598963573575">
        <ele>188.84100000000001</ele>
        <time>2015-08-08T11:57:23Z</time>
      </trkpt>
      <trkpt lat="50.459401002153754" lon="5.243083024397492">
        <ele>201.85499999999999</ele>
        <time>2015-08-08T11:58:13Z</time>
      </trkpt>
      <trkpt lat="50.458952989429235" lon="5.244221035391092">
        <ele>205.84200000000001</ele>
        <time>2015-08-08T11:58:31Z</time>
      </trkpt>
      <trkpt lat="50.456603039056063" lon="5.246617002412677">
        <ele>224.077</ele>
        <time>2015-08-08T12:00:04Z</time>
      </trkpt>
      <trkpt lat="50.454520974308252" lon="5.249317986890674">
        <ele>240.22499999999999</ele>
        <time>2015-08-08T12:03:15Z</time>
      </trkpt>
      <trkpt lat="50.453713964670897" lon="5.249865995720029">
        <ele>249.77199999999999</ele>
        <time>2015-08-08T12:04:17Z</time>
      </trkpt>
      <trkpt lat="50.452787009999156" lon="5.251136021688581">
        <ele>263.791</ele>
        <time>2015-08-08T12:05:40Z</time>
      </trkpt>
      <trkpt lat="50.448359018191695" lon="5.256032980978489">
        <ele>229.27500000000001</ele>
        <time>2015-08-08T12:11:12Z</time>
      </trkpt>
      <trkpt lat="50.447815032675862" lon="5.257106032222509">
        <ele>226.52799999999999</ele>
        <time>2015-08-08T12:12:15Z</time>
      </trkpt>
      <trkpt lat="50.446924036368728" lon="5.25807598605752">
        <ele>217.22</ele>
        <time>2015-08-08T12:13:13Z</time>
      </trkpt>
      <trkpt lat="50.446076039224863" lon="5.259506022557616">
        <ele>212.50800000000001</ele>
        <time>2015-08-08T12:14:35Z</time>
      </trkpt>
      <trkpt lat="50.446196990087628" lon="5.261861002072692">
        <ele>210.44800000000001</ele>
        <time>2015-08-08T12:16:10Z</time>
      </trkpt>
      <trkpt lat="50.445451000705361" lon="5.262185968458653">
        <ele>208.68700000000001</ele>
        <time>2015-08-08T12:16:59Z</time>
      </trkpt>
      <trkpt lat="50.44506199657917" lon="5.262180017307401">
        <ele>208.381</ele>
        <time>2015-08-08T12:17:21Z</time>
      </trkpt>
      <trkpt lat="50.44486996717751" lon="5.262124026194215">
        <ele>207.44800000000001</ele>
        <time>2015-08-08T12:17:31Z</time>
      </trkpt>
      <trkpt lat="50.444638961926103" lon="5.2616429887712">
        <ele>206.613</ele>
        <time>2015-08-08T12:17:55Z</time>
      </trkpt>
      <trkpt lat="50.444457996636629" lon="5.261588003486395">
        <ele>206.971</ele>
        <time>2015-08-08T12:18:08Z</time>
      </trkpt>
      <trkpt lat="50.443990034982562" lon="5.262475982308388">
        <ele>203.97800000000001</ele>
        <time>2015-08-08T12:18:55Z</time>
      </trkpt>
      <trkpt lat="50.442759990692139" lon="5.261324979364872">
        <ele>196.95699999999999</ele>
        <time>2015-08-08T12:20:45Z</time>
      </trkpt>
      <trkpt lat="50.442322036251426" lon="5.261678025126457">
        <ele>196.74700000000001</ele>
        <time>2015-08-08T12:22:02Z</time>
      </trkpt>
      <trkpt lat="50.441717030480504" lon="5.261790007352829">
        <ele>204.22900000000001</ele>
        <time>2015-08-08T12:22:37Z</time>
      </trkpt>
      <trkpt lat="50.441468004137278" lon="5.264877984300256">
        <ele>220.42099999999999</ele>
        <time>2015-08-08T12:23:35Z</time>
      </trkpt>
      <trkpt lat="50.441269017755985" lon="5.265664039179683">
        <ele>229.608</ele>
        <time>2015-08-08T12:23:54Z</time>
      </trkpt>
      <trkpt lat="50.440697958692908" lon="5.265547027811408">
        <ele>238.745</ele>
        <time>2015-08-08T12:24:11Z</time>
      </trkpt>
      <trkpt lat="50.440417835488915" lon="5.26536145247519">
        <ele>242.78399999999999</ele>
        <time>2015-08-08T12:24:22Z</time>
      </trkpt>
      <trkpt lat="50.439982982352376" lon="5.265378970652819">
        <ele>241.49799999999999</ele>
        <time>2015-08-08T12:24:37Z</time>
      </trkpt>
      <trkpt lat="50.440116003155708" lon="5.265855314210057">
        <ele>247.744</ele>
        <time>2015-08-08T12:27:15Z</time>
      </trkpt>
      <trkpt lat="50.44086710549891" lon="5.268213646486402">
        <ele>246.84700000000001</ele>
        <time>2015-08-08T12:28:58Z</time>
      </trkpt>
      <trkpt lat="50.441753743216395" lon="5.268648331984878">
        <ele>247.21100000000001</ele>
        <time>2015-08-08T12:29:37Z</time>
      </trkpt>
      <trkpt lat="50.443036593496799" lon="5.270066717639566">
        <ele>246.30799999999999</ele>
        <time>2015-08-08T12:30:18Z</time>
      </trkpt>
      <trkpt lat="50.443156035616994" lon="5.270683374255896">
        <ele>245.68299999999999</ele>
        <time>2015-08-08T12:32:09Z</time>
      </trkpt>
      <trkpt lat="50.443030307069421" lon="5.271522486582398">
        <ele>245.15199999999999</ele>
        <time>2015-08-08T12:33:08Z</time>
      </trkpt>
      <trkpt lat="50.443828934803605" lon="5.27271531522274">
        <ele>243.35599999999999</ele>
        <time>2015-08-08T12:34:54Z</time>
      </trkpt>
      <trkpt lat="50.444030100479722" lon="5.273089399561286">
        <ele>240.15299999999999</ele>
        <time>2015-08-08T12:37:57Z</time>
      </trkpt>
      <trkpt lat="50.444250209257007" lon="5.273443199694157">
        <ele>240.69800000000001</ele>
        <time>2015-08-08T13:18:49Z</time>
      </trkpt>
      <trkpt lat="50.444388007745147" lon="5.27371603064239">
        <ele>239.98599999999999</ele>
        <time>2015-08-08T13:19:08Z</time>
      </trkpt>
      <trkpt lat="50.444879019632936" lon="5.274797882884741">
        <ele>235.31399999999999</ele>
        <time>2015-08-08T13:27:23Z</time>
      </trkpt>
      <trkpt lat="50.444441987201571" lon="5.274710040539503">
        <ele>234.80799999999999</ele>
        <time>2015-08-08T13:28:05Z</time>
      </trkpt>
      <trkpt lat="50.443373965099454" lon="5.274353977292776">
        <ele>229.364</ele>
        <time>2015-08-08T13:29:19Z</time>
      </trkpt>
      <trkpt lat="50.442896028980613" lon="5.27449001558125">
        <ele>223.35300000000001</ele>
        <time>2015-08-08T13:29:50Z</time>
      </trkpt>
      <trkpt lat="50.441640000790358" lon="5.273709995672107">
        <ele>209.797</ele>
        <time>2015-08-08T13:31:17Z</time>
      </trkpt>
      <trkpt lat="50.441362978890538" lon="5.273798005655408">
        <ele>206.98400000000001</ele>
        <time>2015-08-08T13:31:30Z</time>
      </trkpt>
      <trkpt lat="50.44089300557971" lon="5.274368980899453">
        <ele>206.179</ele>
        <time>2015-08-08T13:32:03Z</time>
      </trkpt>
      <trkpt lat="50.440509030595422" lon="5.274270996451378">
        <ele>207.98699999999999</ele>
        <time>2015-08-08T13:32:24Z</time>
      </trkpt>
      <trkpt lat="50.439677964895964" lon="5.273304982110858">
        <ele>210.614</ele>
        <time>2015-08-08T13:33:03Z</time>
      </trkpt>
      <trkpt lat="50.438969023525715" lon="5.272843977436423">
        <ele>216.21299999999999</ele>
        <time>2015-08-08T13:33:26Z</time>
      </trkpt>
      <trkpt lat="50.437702015042305" lon="5.277305999770761">
        <ele>223.542</ele>
        <time>2015-08-08T13:34:55Z</time>
      </trkpt>
      <trkpt lat="50.436207018792629" lon="5.278919013217092">
        <ele>226.422</ele>
        <time>2015-08-08T13:35:43Z</time>
      </trkpt>
      <trkpt lat="50.43573796749115" lon="5.279780002310872">
        <ele>231.01400000000001</ele>
        <time>2015-08-08T13:36:20Z</time>
      </trkpt>
      <trkpt lat="50.434764996170998" lon="5.280812988057733">
        <ele>228.708</ele>
        <time>2015-08-08T13:37:37Z</time>
      </trkpt>
      <trkpt lat="50.4345110245049" lon="5.28147398494184">
        <ele>229.01499999999999</ele>
        <time>2015-08-08T13:38:08Z</time>
      </trkpt>
      <trkpt lat="50.43341601267457" lon="5.283039975911379">
        <ele>222.124</ele>
        <time>2015-08-08T13:39:41Z</time>
      </trkpt>
      <trkpt lat="50.433121975511312" lon="5.284345960244536">
        <ele>215.768</ele>
        <time>2015-08-08T13:40:33Z</time>
      </trkpt>
      <trkpt lat="50.433100014925003" lon="5.286312019452453">
        <ele>199.05500000000001</ele>
        <time>2015-08-08T13:41:48Z</time>
      </trkpt>
      <trkpt lat="50.433347029611468" lon="5.287139983847737">
        <ele>191.47999999999999</ele>
        <time>2015-08-08T13:42:22Z</time>
      </trkpt>
      <trkpt lat="50.433768974617124" lon="5.287712970748544">
        <ele>186.018</ele>
        <time>2015-08-08T13:42:58Z</time>
      </trkpt>
      <trkpt lat="50.43438202701509" lon="5.287246014922857">
        <ele>183.92500000000001</ele>
        <time>2015-08-08T13:43:41Z</time>
      </trkpt>
      <trkpt lat="50.434473976492882" lon="5.287011992186308">
        <ele>183.39400000000001</ele>
        <time>2015-08-08T13:45:31Z</time>
      </trkpt>
      <trkpt lat="50.434566009789705" lon="5.287092039361596">
        <ele>183.666</ele>
        <time>2015-08-08T13:45:43Z</time>
      </trkpt>
      <trkpt lat="50.434943027794361" lon="5.288458960130811">
        <ele>185.929</ele>
        <time>2015-08-08T13:46:43Z</time>
      </trkpt>
      <trkpt lat="50.435518026351929" lon="5.289539974182844">
        <ele>190.821</ele>
        <time>2015-08-08T13:47:37Z</time>
      </trkpt>
      <trkpt lat="50.435618022456765" lon="5.290627023205161">
        <ele>192.90799999999999</ele>
        <time>2015-08-08T13:48:20Z</time>
      </trkpt>
      <trkpt lat="50.435460023581982" lon="5.291818007826805">
        <ele>196.517</ele>
        <time>2015-08-08T13:49:08Z</time>
      </trkpt>
      <trkpt lat="50.435659009963274" lon="5.293147964403033">
        <ele>201.126</ele>
        <time>2015-08-08T13:50:05Z</time>
      </trkpt>
      <trkpt lat="50.436057988554239" lon="5.293060038238764">
        <ele>206.72</ele>
        <time>2015-08-08T13:50:20Z</time>
      </trkpt>
      <trkpt lat="50.436374992132187" lon="5.292690983042121">
        <ele>211.517</ele>
        <time>2015-08-08T13:50:33Z</time>
      </trkpt>
      <trkpt lat="50.43633702211082" lon="5.291242003440857">
        <ele>215.33199999999999</ele>
        <time>2015-08-08T13:51:00Z</time>
      </trkpt>
      <trkpt lat="50.436503989621997" lon="5.291038993746042">
        <ele>220.03</ele>
        <time>2015-08-08T13:51:06Z</time>
      </trkpt>
      <trkpt lat="50.439078994095325" lon="5.289714988321066">
        <ele>228.95699999999999</ele>
        <time>2015-08-08T13:52:01Z</time>
      </trkpt>
      <trkpt lat="50.43923900462687" lon="5.289826970547438">
        <ele>229.476</ele>
        <time>2015-08-08T13:52:09Z</time>
      </trkpt>
      <trkpt lat="50.439408989623189" lon="5.290778987109661">
        <ele>230.172</ele>
        <time>2015-08-08T13:52:27Z</time>
      </trkpt>
      <trkpt lat="50.441010016947985" lon="5.290198959410191">
        <ele>223.51300000000001</ele>
        <time>2015-08-08T13:53:29Z</time>
      </trkpt>
      <trkpt lat="50.441398015245795" lon="5.289723034948111">
        <ele>227.114</ele>
        <time>2015-08-08T13:54:01Z</time>
      </trkpt>
      <trkpt lat="50.441316040232778" lon="5.288490979000926">
        <ele>226.30799999999999</ele>
        <time>2015-08-08T13:54:53Z</time>
      </trkpt>
      <trkpt lat="50.441684005782008" lon="5.287993010133505">
        <ele>224.88800000000001</ele>
        <time>2015-08-08T13:55:19Z</time>
      </trkpt>
      <trkpt lat="50.442658988758922" lon="5.287248026579619">
        <ele>222.55699999999999</ele>
        <time>2015-08-08T13:56:25Z</time>
      </trkpt>
      <trkpt lat="50.442764014005661" lon="5.286877965554595">
        <ele>222.06100000000001</ele>
        <time>2015-08-08T13:56:44Z</time>
      </trkpt>
      <trkpt lat="50.443151006475091" lon="5.286735976114869">
        <ele>220.49799999999999</ele>
        <time>2015-08-08T13:57:09Z</time>
      </trkpt>
      <trkpt lat="50.4436219856143" lon="5.286802025511861">
        <ele>218.553</ele>
        <time>2015-08-08T13:57:40Z</time>
      </trkpt>
      <trkpt lat="50.444358000531793" lon="5.28712104074657">
        <ele>217.071</ele>
        <time>2015-08-08T13:58:24Z</time>
      </trkpt>
      <trkpt lat="50.444543994963169" lon="5.287441983819008">
        <ele>215.828</ele>
        <time>2015-08-08T13:58:42Z</time>
      </trkpt>
      <trkpt lat="50.444713979959488" lon="5.28746897354722">
        <ele>219.857</ele>
        <time>2015-08-08T13:58:56Z</time>
      </trkpt>
      <trkpt lat="50.44467500410974" lon="5.286896992474794">
        <ele>207.94800000000001</ele>
        <time>2015-08-08T13:59:28Z</time>
      </trkpt>
      <trkpt lat="50.443763975054026" lon="5.286238007247448">
        <ele>200.46100000000001</ele>
        <time>2015-08-08T14:00:28Z</time>
      </trkpt>
      <trkpt lat="50.444710962474346" lon="5.286172963678837">
        <ele>183.11699999999999</ele>
        <time>2015-08-08T14:01:45Z</time>
      </trkpt>
      <trkpt lat="50.445728022605181" lon="5.287120034918189">
        <ele>177.108</ele>
        <time>2015-08-08T14:02:56Z</time>
      </trkpt>
      <trkpt lat="50.446660006418824" lon="5.288421995937824">
        <ele>176.27500000000001</ele>
        <time>2015-08-08T14:04:22Z</time>
      </trkpt>
      <trkpt lat="50.446954965591431" lon="5.288531966507435">
        <ele>176.25399999999999</ele>
        <time>2015-08-08T14:04:41Z</time>
      </trkpt>
      <trkpt lat="50.447388980537653" lon="5.28821999207139">
        <ele>175.49799999999999</ele>
        <time>2015-08-08T14:05:08Z</time>
      </trkpt>
      <trkpt lat="50.448597986251116" lon="5.286611001938582">
        <ele>175.61500000000001</ele>
        <time>2015-08-08T14:06:41Z</time>
      </trkpt>
      <trkpt lat="50.449471967294812" lon="5.285971965640783">
        <ele>176.59</ele>
        <time>2015-08-08T14:08:07Z</time>
      </trkpt>
      <trkpt lat="50.449411030858755" lon="5.285527976229787">
        <ele>175.048</ele>
        <time>2015-08-08T14:08:22Z</time>
      </trkpt>
      <trkpt lat="50.449133003130555" lon="5.285386992618442">
        <ele>174.85499999999999</ele>
        <time>2015-08-08T14:08:39Z</time>
      </trkpt>
      <trkpt lat="50.448100017383695" lon="5.284263985231519">
        <ele>170.32400000000001</ele>
        <time>2015-08-08T14:09:59Z</time>
      </trkpt>
      <trkpt lat="50.447658039629459" lon="5.284023005515337">
        <ele>172.39400000000001</ele>
        <time>2015-08-08T14:10:25Z</time>
      </trkpt>
      <trkpt lat="50.447562988847494" lon="5.283737014979124">
        <ele>171.857</ele>
        <time>2015-08-08T14:10:36Z</time>
      </trkpt>
      <trkpt lat="50.448122983798385" lon="5.282921036705375">
        <ele>176.22200000000001</ele>
        <time>2015-08-08T14:12:39Z</time>
      </trkpt>
      <trkpt lat="50.448901997879148" lon="5.282285017892718">
        <ele>177.608</ele>
        <time>2015-08-08T14:13:37Z</time>
      </trkpt>
      <trkpt lat="50.449628038331866" lon="5.281346999108791">
        <ele>188.28</ele>
        <time>2015-08-08T14:14:37Z</time>
      </trkpt>
      <trkpt lat="50.449866000562906" lon="5.280664041638374">
        <ele>191.68899999999999</ele>
        <time>2015-08-08T14:15:06Z</time>
      </trkpt>
      <trkpt lat="50.449930038303137" lon="5.279726022854447">
        <ele>191.333</ele>
        <time>2015-08-08T14:15:42Z</time>
      </trkpt>
      <trkpt lat="50.44974697753787" lon="5.277758035808802">
        <ele>197.12</ele>
        <time>2015-08-08T14:17:04Z</time>
      </trkpt>
      <trkpt lat="50.4490149859339" lon="5.278377961367369">
        <ele>213.26499999999999</ele>
        <time>2015-08-08T14:17:33Z</time>
      </trkpt>
      <trkpt lat="50.44871399179101" lon="5.278385002166033">
        <ele>216.953</ele>
        <time>2015-08-08T14:17:43Z</time>
      </trkpt>
      <trkpt lat="50.4474469833076" lon="5.276732007041574">
        <ele>224.21000000000001</ele>
        <time>2015-08-08T14:18:33Z</time>
      </trkpt>
      <trkpt lat="50.446085007861257" lon="5.274549024179578">
        <ele>222.15899999999999</ele>
        <time>2015-08-08T14:20:24Z</time>
      </trkpt>
      <trkpt lat="50.445961961522698" lon="5.274299997836351">
        <ele>222.05500000000001</ele>
        <time>2015-08-08T14:20:35Z</time>
      </trkpt>
      <trkpt lat="50.446020970121026" lon="5.273855002596974">
        <ele>221.00700000000001</ele>
        <time>2015-08-08T14:20:51Z</time>
      </trkpt>
      <trkpt lat="50.445222007110715" lon="5.27511497028172">
        <ele>228.417</ele>
        <time>2015-08-08T14:21:28Z</time>
      </trkpt>
      <trkpt lat="50.445141959935427" lon="5.27504900470376">
        <ele>229.40799999999999</ele>
        <time>2015-08-08T14:21:33Z</time>
      </trkpt>
      <trkpt lat="50.444640051573515" lon="5.273311771452427">
        <ele>236.58600000000001</ele>
        <time>2015-08-08T14:22:55Z</time>
      </trkpt>
      <trkpt lat="50.44432564638555" lon="5.272867027670145">
        <ele>238.755</ele>
        <time>2015-08-08T14:24:45Z</time>
      </trkpt>
      <trkpt lat="50.443198028951883" lon="5.271538998931646">
        <ele>239.34899999999999</ele>
        <time>2015-08-08T14:26:27Z</time>
      </trkpt>
      <trkpt lat="50.443284027278423" lon="5.270984033122659">
        <ele>239.77600000000001</ele>
        <time>2015-08-08T14:26:55Z</time>
      </trkpt>
      <trkpt lat="50.443123010918498" lon="5.269953981041908">
        <ele>238.661</ele>
        <time>2015-08-08T14:27:40Z</time>
      </trkpt>
      <trkpt lat="50.442866776138544" lon="5.269621973857284">
        <ele>239.01900000000001</ele>
        <time>2015-08-08T14:27:59Z</time>
      </trkpt>
      <trkpt lat="50.442472994327545" lon="5.269091986119747">
        <ele>239.24600000000001</ele>
        <time>2015-08-08T14:28:36Z</time>
      </trkpt>
      <trkpt lat="50.441899001598358" lon="5.268511036410928">
        <ele>240.565</ele>
        <time>2015-08-08T14:29:14Z</time>
      </trkpt>
      <trkpt lat="50.441380832344294" lon="5.268345074728131">
        <ele>239.69399999999999</ele>
        <time>2015-08-08T14:29:55Z</time>
      </trkpt>
      <trkpt lat="50.441174637526274" lon="5.268218005076051">
        <ele>240.65700000000001</ele>
        <time>2015-08-08T14:30:15Z</time>
      </trkpt>
      <trkpt lat="50.44092670083046" lon="5.268070735037327">
        <ele>240.322</ele>
        <time>2015-08-08T14:31:00Z</time>
      </trkpt>
      <trkpt lat="50.440054060891271" lon="5.266017084941268">
        <ele>239.608</ele>
        <time>2015-08-08T14:31:51Z</time>
      </trkpt>
      <trkpt lat="50.439923806115985" lon="5.265417778864503">
        <ele>239.71000000000001</ele>
        <time>2015-08-08T14:33:19Z</time>
      </trkpt>
      <trkpt lat="50.439272532239556" lon="5.264601800590754">
        <ele>245.37899999999999</ele>
        <time>2015-08-08T14:34:08Z</time>
      </trkpt>
      <trkpt lat="50.438419003039598" lon="5.261602001264691">
        <ele>242.07300000000001</ele>
        <time>2015-08-08T14:35:18Z</time>
      </trkpt>
      <trkpt lat="50.436986032873392" lon="5.258923983201385">
        <ele>242.31999999999999</ele>
        <time>2015-08-08T14:37:27Z</time>
      </trkpt>
      <trkpt lat="50.43629502877593" lon="5.256938980892301">
        <ele>244.33500000000001</ele>
        <time>2015-08-08T14:38:50Z</time>
      </trkpt>
      <trkpt lat="50.43586696498096" lon="5.254910979419947">
        <ele>245.94300000000001</ele>
        <time>2015-08-08T14:40:08Z</time>
      </trkpt>
      <trkpt lat="50.435418030247092" lon="5.254062982276082">
        <ele>246.78999999999999</ele>
        <time>2015-08-08T14:40:47Z</time>
      </trkpt>
      <trkpt lat="50.434859963133931" lon="5.252461032941937">
        <ele>249.339</ele>
        <time>2015-08-08T14:41:57Z</time>
      </trkpt>
      <trkpt lat="50.434136018157005" lon="5.252096001058817">
        <ele>248.55199999999999</ele>
        <time>2015-08-08T14:42:45Z</time>
      </trkpt>
      <trkpt lat="50.432917037978768" lon="5.250332029536367">
        <ele>251.65299999999999</ele>
        <time>2015-08-08T14:44:19Z</time>
      </trkpt>
      <trkpt lat="50.431197993457317" lon="5.246385997161269">
        <ele>254.50800000000001</ele>
        <time>2015-08-08T14:44:57Z</time>
      </trkpt>
      <trkpt lat="50.430501960217953" lon="5.246825041249394">
        <ele>252.108</ele>
        <time>2015-08-08T14:45:25Z</time>
      </trkpt>
      <trkpt lat="50.427300995215774" lon="5.240514976903796">
        <ele>253.58600000000001</ele>
        <time>2015-08-08T14:47:09Z</time>
      </trkpt>
      <trkpt lat="50.427222037687898" lon="5.240442976355553">
        <ele>252.86500000000001</ele>
        <time>2015-08-08T14:47:18Z</time>
      </trkpt>
      <trkpt lat="50.426551988348365" lon="5.241104979068041">
        <ele>252.01900000000001</ele>
        <time>2015-08-08T14:48:09Z</time>
      </trkpt>
      <trkpt lat="50.426097018644214" lon="5.24015698581934">
        <ele>253.93600000000001</ele>
        <time>2015-08-08T14:49:12Z</time>
      </trkpt>
      <trkpt lat="50.425460999831557" lon="5.240548001602292">
        <ele>248.18100000000001</ele>
        <time>2015-08-08T14:49:50Z</time>
      </trkpt>
      <trkpt lat="50.425266036763787" lon="5.240913033485413">
        <ele>256.16899999999998</ele>
        <time>2015-08-08T14:50:07Z</time>
      </trkpt>
      <trkpt lat="50.425061015412211" lon="5.240914961323142">
        <ele>255.71600000000001</ele>
        <time>2015-08-08T14:50:24Z</time>
      </trkpt>
      <trkpt lat="50.422934023663402" lon="5.238127978518605">
        <ele>234.89500000000001</ele>
        <time>2015-08-08T14:53:14Z</time>
      </trkpt>
      <trkpt lat="50.421924004331231" lon="5.239092987030745">
        <ele>223.21100000000001</ele>
        <time>2015-08-08T14:56:22Z</time>
      </trkpt>
      <trkpt lat="50.421279016882181" lon="5.237756995484233">
        <ele>226.108</ele>
        <time>2015-08-08T14:57:25Z</time>
      </trkpt>
      <trkpt lat="50.421219002455473" lon="5.237325998023152">
        <ele>227.15600000000001</ele>
        <time>2015-08-08T14:57:43Z</time>
      </trkpt>
      <trkpt lat="50.421139961108565" lon="5.235904008150101">
        <ele>230.465</ele>
        <time>2015-08-08T14:58:36Z</time>
      </trkpt>
      <trkpt lat="50.421307012438774" lon="5.235071014612913">
        <ele>232.75899999999999</ele>
        <time>2015-08-08T14:59:08Z</time>
      </trkpt>
      <trkpt lat="50.421711020171642" lon="5.233821021392942">
        <ele>244.42599999999999</ele>
        <time>2015-08-08T14:59:56Z</time>
      </trkpt>
      <trkpt lat="50.42232901789248" lon="5.232599023729563">
        <ele>252.71100000000001</ele>
        <time>2015-08-08T15:00:44Z</time>
      </trkpt>
      <trkpt lat="50.423886040225625" lon="5.230260975658894">
        <ele>247.929</ele>
        <time>2015-08-08T15:03:43Z</time>
      </trkpt>
      <trkpt lat="50.422965036705136" lon="5.231381971389055">
        <ele>258.52600000000001</ele>
        <time>2015-08-08T15:05:34Z</time>
      </trkpt>
      <trkpt lat="50.421181032434106" lon="5.227758977562189">
        <ele>258.07499999999999</ele>
        <time>2015-08-08T15:08:46Z</time>
      </trkpt>
      <trkpt lat="50.420284001156688" lon="5.226558018475771">
        <ele>259.185</ele>
        <time>2015-08-08T15:09:52Z</time>
      </trkpt>
      <trkpt lat="50.419656028971076" lon="5.225198976695538">
        <ele>258.089</ele>
        <time>2015-08-08T15:11:00Z</time>
      </trkpt>
      <trkpt lat="50.419108020141721" lon="5.224401019513607">
        <ele>259.21699999999998</ele>
        <time>2015-08-08T15:11:49Z</time>
      </trkpt>
      <trkpt lat="50.418807025998831" lon="5.223574982956052">
        <ele>260.90800000000002</ele>
        <time>2015-08-08T15:12:30Z</time>
      </trkpt>
      <trkpt lat="50.417984006926417" lon="5.222485000267625">
        <ele>262.49900000000002</ele>
        <time>2015-08-08T15:13:26Z</time>
      </trkpt>
      <trkpt lat="50.417445972561836" lon="5.221203994005919">
        <ele>262.97800000000001</ele>
        <time>2015-08-08T15:14:29Z</time>
      </trkpt>
      <trkpt lat="50.418068999424577" lon="5.220919009298086">
        <ele>258.63799999999998</ele>
        <time>2015-08-08T16:48:05Z</time>
      </trkpt>
      <trkpt lat="50.41981402784586" lon="5.221575982868671">
        <ele>248.91499999999999</ele>
        <time>2015-08-08T16:49:47Z</time>
      </trkpt>
      <trkpt lat="50.424546031281352" lon="5.222574016079307">
        <ele>216.684</ele>
        <time>2015-08-08T16:54:21Z</time>
      </trkpt>
      <trkpt lat="50.426199026405811" lon="5.222169002518058">
        <ele>215.71600000000001</ele>
        <time>2015-08-08T16:56:01Z</time>
      </trkpt>
      <trkpt lat="50.427425969392061" lon="5.221385965123773">
        <ele>216.376</ele>
        <time>2015-08-08T16:57:15Z</time>
      </trkpt>
      <trkpt lat="50.428004991263151" lon="5.221195025369525">
        <ele>218.31299999999999</ele>
        <time>2015-08-08T16:57:53Z</time>
      </trkpt>
      <trkpt lat="50.428874026983976" lon="5.220441995188594">
        <ele>224.608</ele>
        <time>2015-08-08T16:58:54Z</time>
      </trkpt>
      <trkpt lat="50.429223971441388" lon="5.218191035091877">
        <ele>231.05199999999999</ele>
        <time>2015-08-08T17:00:28Z</time>
      </trkpt>
      <trkpt lat="50.431610969826579" lon="5.20683498121798">
        <ele>255.351</ele>
        <time>2015-08-08T17:08:07Z</time>
      </trkpt>
      <trkpt lat="50.433348035439849" lon="5.209034979343414">
        <ele>258.78500000000003</ele>
        <time>2015-08-08T17:10:12Z</time>
      </trkpt>
      <trkpt lat="50.433607958257198" lon="5.209171017631888">
        <ele>258.18200000000002</ele>
        <time>2015-08-08T17:10:27Z</time>
      </trkpt>
      <trkpt lat="50.433891015127301" lon="5.209019975736737">
        <ele>258.54700000000003</ele>
        <time>2015-08-08T17:10:43Z</time>
      </trkpt>
      <trkpt lat="50.437002964317799" lon="5.206242967396975">
        <ele>222.16499999999999</ele>
        <time>2015-08-08T17:14:05Z</time>
      </trkpt>
      <trkpt lat="50.441475966945291" lon="5.201941039413214">
        <ele>233.44200000000001</ele>
        <time>2015-08-08T17:17:32Z</time>
      </trkpt>
      <trkpt lat="50.444018030539155" lon="5.199773982167244">
        <ele>244.86099999999999</ele>
        <time>2015-08-08T17:18:21Z</time>
      </trkpt>
      <trkpt lat="50.444539971649647" lon="5.19922798499465">
        <ele>247.328</ele>
        <time>2015-08-08T17:18:35Z</time>
      </trkpt>
      <trkpt lat="50.445828018710017" lon="5.196823971346021">
        <ele>247.489</ele>
        <time>2015-08-08T17:19:29Z</time>
      </trkpt>
      <trkpt lat="50.446853041648865" lon="5.196148976683617">
        <ele>254.517</ele>
        <time>2015-08-08T17:20:28Z</time>
      </trkpt>
      <trkpt lat="50.447523007169366" lon="5.195458978414536">
        <ele>258.00799999999998</ele>
        <time>2015-08-08T17:21:20Z</time>
      </trkpt>
      <trkpt lat="50.447007017210126" lon="5.193953001871705">
        <ele>262.27300000000002</ele>
        <time>2015-08-08T17:22:35Z</time>
      </trkpt>
      <trkpt lat="50.446378039196134" lon="5.193220004439354">
        <ele>260.61200000000002</ele>
        <time>2015-08-08T17:23:23Z</time>
      </trkpt>
      <trkpt lat="50.446248035877943" lon="5.192805016413331">
        <ele>260.036</ele>
        <time>2015-08-08T17:23:39Z</time>
      </trkpt>
      <trkpt lat="50.446494966745377" lon="5.192645005881786">
        <ele>259.91300000000001</ele>
        <time>2015-08-08T17:23:58Z</time>
      </trkpt>
      <trkpt lat="50.446869973093271" lon="5.19289000891149">
        <ele>262.58800000000002</ele>
        <time>2015-08-08T17:24:24Z</time>
      </trkpt>
      <trkpt lat="50.447456035763025" lon="5.192896965891123">
        <ele>267.14600000000002</ele>
        <time>2015-08-08T17:25:03Z</time>
      </trkpt>
      <trkpt lat="50.447888961061835" lon="5.192070007324219">
        <ele>271.62299999999999</ele>
        <time>2015-08-08T17:25:43Z</time>
      </trkpt>
      <trkpt lat="50.448782974854112" lon="5.190873993560672">
        <ele>274.34199999999998</ele>
        <time>2015-08-08T17:26:54Z</time>
      </trkpt>
      <trkpt lat="50.45047402381897" lon="5.192599995061755">
        <ele>278.54399999999998</ele>
        <time>2015-08-08T17:28:50Z</time>
      </trkpt>
      <trkpt lat="50.451901964843273" lon="5.195484040305018">
        <ele>274.70499999999998</ele>
        <time>2015-08-08T17:31:08Z</time>
      </trkpt>
      <trkpt lat="50.453405007719994" lon="5.193955013528466">
        <ele>267.21499999999997</ele>
        <time>2015-08-08T17:32:44Z</time>
      </trkpt>
      <trkpt lat="50.453425040468574" lon="5.193163007497788">
        <ele>265.80799999999999</ele>
        <time>2015-08-08T17:33:12Z</time>
      </trkpt>
      <trkpt lat="50.453163022175431" lon="5.19170799292624">
        <ele>262.86500000000001</ele>
        <time>2015-08-08T17:34:12Z</time>
      </trkpt>
      <trkpt lat="50.453267963603139" lon="5.191297028213739">
        <ele>261.87400000000002</ele>
        <time>2015-08-08T17:34:32Z</time>
      </trkpt>
      <trkpt lat="50.454298015683889" lon="5.192476026713848">
        <ele>253.69800000000001</ele>
        <time>2015-08-08T17:35:52Z</time>
      </trkpt>
      <trkpt lat="50.454778969287872" lon="5.192786995321512">
        <ele>249.255</ele>
        <time>2015-08-08T17:36:19Z</time>
      </trkpt>
      <trkpt lat="50.455596037209034" lon="5.193660976365209">
        <ele>240.88</ele>
        <time>2015-08-08T17:37:18Z</time>
      </trkpt>
      <trkpt lat="50.456977961584926" lon="5.192877016961575">
        <ele>234.08799999999999</ele>
        <time>2015-08-08T17:38:43Z</time>
      </trkpt>
      <trkpt lat="50.457656979560852" lon="5.192722035571933">
        <ele>226.11500000000001</ele>
        <time>2015-08-08T17:39:26Z</time>
      </trkpt>
      <trkpt lat="50.4588339664042" lon="5.192943988367915">
        <ele>222.69399999999999</ele>
        <time>2015-08-08T17:40:37Z</time>
      </trkpt>
      <trkpt lat="50.459043011069298" lon="5.193292004987598">
        <ele>221.26900000000001</ele>
        <time>2015-08-08T17:40:52Z</time>
      </trkpt>
      <trkpt lat="50.459733009338379" lon="5.19381302408874">
        <ele>222.60400000000001</ele>
        <time>2015-08-08T17:41:15Z</time>
      </trkpt>
      <trkpt lat="50.461017033085227" lon="5.196419963613153">
        <ele>222.124</ele>
        <time>2015-08-08T17:41:54Z</time>
      </trkpt>
      <trkpt lat="50.461714994162321" lon="5.197141980752349">
        <ele>224.708</ele>
        <time>2015-08-08T17:42:10Z</time>
      </trkpt>
      <trkpt lat="50.462169963866472" lon="5.198007998988032">
        <ele>221.68700000000001</ele>
        <time>2015-08-08T17:42:31Z</time>
      </trkpt>
      <trkpt lat="50.463050985708833" lon="5.201280964538455">
        <ele>220.036</ele>
        <time>2015-08-08T17:44:48Z</time>
      </trkpt>
      <trkpt lat="50.464001996442676" lon="5.203551035374403">
        <ele>220.46000000000001</ele>
        <time>2015-08-08T17:46:26Z</time>
      </trkpt>
      <trkpt lat="50.464587975293398" lon="5.204345975071192">
        <ele>223.14699999999999</ele>
        <time>2015-08-08T17:47:12Z</time>
      </trkpt>
      <trkpt lat="50.465633030980825" lon="5.206535998731852">
        <ele>226.62200000000001</ele>
        <time>2015-08-08T17:48:57Z</time>
      </trkpt>
      <trkpt lat="50.466862991452217" lon="5.211877031251788">
        <ele>224.83000000000001</ele>
        <time>2015-08-08T17:52:26Z</time>
      </trkpt>
      <trkpt lat="50.467063989490271" lon="5.211868984624744">
        <ele>225.797</ele>
        <time>2015-08-08T17:52:37Z</time>
      </trkpt>
      <trkpt lat="50.469922972843051" lon="5.210048016160727">
        <ele>255.02600000000001</ele>
        <time>2015-08-08T17:55:29Z</time>
      </trkpt>
      <trkpt lat="50.471182018518448" lon="5.208973959088326">
        <ele>258.267</ele>
        <time>2015-08-08T17:56:47Z</time>
      </trkpt>
      <trkpt lat="50.472039990127087" lon="5.208026971668005">
        <ele>260.68099999999998</ele>
        <time>2015-08-08T17:57:44Z</time>
      </trkpt>
      <trkpt lat="50.472224978730083" lon="5.208376999944449">
        <ele>258.21899999999999</ele>
        <time>2015-08-08T17:58:00Z</time>
      </trkpt>
    </trkseg>
  </trk>

</gpx>